sensor_id;sensor_type;location;lat;lon;timestamp;pressure;altitude;pressure_sealevel;temperature;humidity
78117;BME280;69042;59.120;37.904;2024-01-27T00:00:17;100272.28;;;1.13;71.20
78117;BME280;69042;59.120;37.904;2024-01-27T00:02:44;100273.97;;;1.14;71.29
78117;BME280;69042;59.120;37.904;2024-01-27T00:05:10;100275.69;;;1.16;71.97
78117;BME280;69042;59.120;37.904;2024-01-27T00:07:37;100273.13;;;1.18;71.43
78117;BME280;69042;59.120;37.904;2024-01-27T00:10:04;100271.41;;;1.20;71.29
78117;BME280;69042;59.120;37.904;2024-01-27T00:12:30;100274.84;;;1.22;71.69
78117;BME280;69042;59.120;37.904;2024-01-27T00:14:57;100280.84;;;1.22;71.79
78117;BME280;69042;59.120;37.904;2024-01-27T00:17:23;100274.84;;;1.22;71.18
78117;BME280;69042;59.120;37.904;2024-01-27T00:19:54;100281.69;;;1.23;71.34
78117;BME280;69042;59.120;37.904;2024-01-27T00:22:20;100267.13;;;1.16;71.40
78117;BME280;69042;59.120;37.904;2024-01-27T00:24:47;100288.56;;;1.24;71.57
78117;BME280;69042;59.120;37.904;2024-01-27T00:27:13;100287.69;;;1.25;71.63
78117;BME280;69042;59.120;37.904;2024-01-27T00:29:40;100286.81;;;1.28;71.98
78117;BME280;69042;59.120;37.904;2024-01-27T00:32:06;100288.56;;;1.29;71.71
78117;BME280;69042;59.120;37.904;2024-01-27T00:34:33;100290.25;;;1.30;71.90
78117;BME280;69042;59.120;37.904;2024-01-27T00:36:59;100289.41;;;1.31;71.21
78117;BME280;69042;59.120;37.904;2024-01-27T00:39:26;100295.41;;;1.34;71.73
78117;BME280;69042;59.120;37.904;2024-01-27T00:41:52;100292.84;;;1.36;71.91
78117;BME280;69042;59.120;37.904;2024-01-27T00:44:21;100291.13;;;1.38;71.48
78117;BME280;69042;59.120;37.904;2024-01-27T00:46:47;100295.41;;;1.40;71.63
78117;BME280;69042;59.120;37.904;2024-01-27T00:49:13;100293.69;;;1.42;71.18
78117;BME280;69042;59.120;37.904;2024-01-27T00:51:40;100297.13;;;1.44;72.00
78117;BME280;69042;59.120;37.904;2024-01-27T00:54:06;100296.25;;;1.45;71.67
78117;BME280;69042;59.120;37.904;2024-01-27T00:56:32;100295.38;;;1.45;71.54
78117;BME280;69042;59.120;37.904;2024-01-27T00:58:59;100293.69;;;1.42;71.50
78117;BME280;69042;59.120;37.904;2024-01-27T01:01:25;100303.97;;;1.42;71.55
78117;BME280;69042;59.120;37.904;2024-01-27T01:03:52;100303.13;;;1.40;71.31
78117;BME280;69042;59.120;37.904;2024-01-27T01:06:18;100301.41;;;1.38;71.87
78117;BME280;69042;59.120;37.904;2024-01-27T01:08:45;100297.97;;;1.34;71.92
78117;BME280;69042;59.120;37.904;2024-01-27T01:11:11;100303.13;;;1.39;72.14
78117;BME280;69042;59.120;37.904;2024-01-27T01:13:38;100293.66;;;1.41;72.13
78117;BME280;69042;59.120;37.904;2024-01-27T01:16:04;100297.09;;;1.41;71.21
78117;BME280;69042;59.120;37.904;2024-01-27T01:18:31;100297.97;;;1.42;71.64
78117;BME280;69042;59.120;37.904;2024-01-27T01:20:57;100303.13;;;1.45;71.94
78117;BME280;69042;59.120;37.904;2024-01-27T01:23:23;100300.53;;;1.45;71.39
78117;BME280;69042;59.120;37.904;2024-01-27T01:25:49;100292.81;;;1.43;70.88
78117;BME280;69042;59.120;37.904;2024-01-27T01:28:16;100298.81;;;1.44;70.87
78117;BME280;69042;59.120;37.904;2024-01-27T01:30:42;100296.22;;;1.44;71.13
78117;BME280;69042;59.120;37.904;2024-01-27T01:33:10;100294.53;;;1.48;71.18
78117;BME280;69042;59.120;37.904;2024-01-27T01:35:37;100296.22;;;1.49;71.40
78117;BME280;69042;59.120;37.904;2024-01-27T01:38:03;100294.50;;;1.51;71.15
78117;BME280;69042;59.120;37.904;2024-01-27T01:40:30;100302.25;;;1.52;70.96
78117;BME280;69042;59.120;37.904;2024-01-27T01:42:56;100299.66;;;1.52;71.27
78117;BME280;69042;59.120;37.904;2024-01-27T01:45:24;100307.38;;;1.51;70.94
78117;BME280;69042;59.120;37.904;2024-01-27T01:47:50;100303.09;;;1.50;70.62
78117;BME280;69042;59.120;37.904;2024-01-27T01:50:17;100304.81;;;1.51;71.46
78117;BME280;69042;59.120;37.904;2024-01-27T01:52:44;100304.81;;;1.52;71.45
78117;BME280;69042;59.120;37.904;2024-01-27T01:55:10;100309.94;;;1.55;70.73
78117;BME280;69042;59.120;37.904;2024-01-27T01:57:39;100309.09;;;1.56;70.98
78117;BME280;69042;59.120;37.904;2024-01-27T02:00:06;100313.38;;;1.59;70.75
78117;BME280;69042;59.120;37.904;2024-01-27T02:02:38;100309.97;;;1.58;70.83
78117;BME280;69042;59.120;37.904;2024-01-27T02:05:05;100311.66;;;1.61;71.36
78117;BME280;69042;59.120;37.904;2024-01-27T02:07:31;100312.50;;;1.60;70.94
78117;BME280;69042;59.120;37.904;2024-01-27T02:09:59;100316.81;;;1.59;71.46
78117;BME280;69042;59.120;37.904;2024-01-27T02:12:25;100314.25;;;1.58;70.98
78117;BME280;69042;59.120;37.904;2024-01-27T02:14:51;100326.28;;;1.56;71.13
78117;BME280;69042;59.120;37.904;2024-01-27T02:17:18;100321.13;;;1.54;71.63
78117;BME280;69042;59.120;37.904;2024-01-27T02:19:44;100326.28;;;1.54;71.19
78117;BME280;69042;59.120;37.904;2024-01-27T02:22:11;100322.84;;;1.54;70.60
78117;BME280;69042;59.120;37.904;2024-01-27T02:24:37;100328.00;;;1.54;71.38
78117;BME280;69042;59.120;37.904;2024-01-27T02:27:04;100323.69;;;1.54;71.48
78117;BME280;69042;59.120;37.904;2024-01-27T02:29:30;100327.13;;;1.55;71.19
78117;BME280;69042;59.120;37.904;2024-01-27T02:31:57;100323.69;;;1.56;71.39
78117;BME280;69042;59.120;37.904;2024-01-27T02:34:23;100331.44;;;1.56;70.94
78117;BME280;69042;59.120;37.904;2024-01-27T02:36:49;100327.16;;;1.53;71.39
78117;BME280;69042;59.120;37.904;2024-01-27T02:39:16;100336.56;;;1.56;71.34
78117;BME280;69042;59.120;37.904;2024-01-27T02:41:42;100335.72;;;1.58;71.01
78117;BME280;69042;59.120;37.904;2024-01-27T02:44:09;100332.25;;;1.61;71.59
78117;BME280;69042;59.120;37.904;2024-01-27T02:46:35;100334.81;;;1.64;71.40
78117;BME280;69042;59.120;37.904;2024-01-27T02:49:02;100339.13;;;1.63;70.74
78117;BME280;69042;59.120;37.904;2024-01-27T02:51:28;100340.84;;;1.61;71.36
78117;BME280;69042;59.120;37.904;2024-01-27T02:53:54;100347.72;;;1.61;71.21
78117;BME280;69042;59.120;37.904;2024-01-27T02:56:21;100346.00;;;1.61;70.63
78117;BME280;69042;59.120;37.904;2024-01-27T02:58:47;100346.84;;;1.62;70.52
78117;BME280;69042;59.120;37.904;2024-01-27T03:01:14;100347.72;;;1.62;70.94
78117;BME280;69042;59.120;37.904;2024-01-27T03:03:40;100346.00;;;1.63;70.88
78117;BME280;69042;59.120;37.904;2024-01-27T03:06:07;100353.72;;;1.66;70.66
78117;BME280;69042;59.120;37.904;2024-01-27T03:08:33;100353.72;;;1.69;70.60
78117;BME280;69042;59.120;37.904;2024-01-27T03:11:00;100354.56;;;1.71;70.60
78117;BME280;69042;59.120;37.904;2024-01-27T03:13:26;100351.97;;;1.73;70.71
78117;BME280;69042;59.120;37.904;2024-01-27T03:15:53;100354.56;;;1.73;70.57
78117;BME280;69042;59.120;37.904;2024-01-27T03:18:19;100364.00;;;1.72;71.38
78117;BME280;69042;59.120;37.904;2024-01-27T03:20:46;100355.41;;;1.75;71.09
78117;BME280;69042;59.120;37.904;2024-01-27T03:23:12;100360.56;;;1.76;70.71
78117;BME280;69042;59.120;37.904;2024-01-27T03:25:38;100367.44;;;1.76;70.60
78117;BME280;69042;59.120;37.904;2024-01-27T03:28:05;100362.28;;;1.74;70.68
78117;BME280;69042;59.120;37.904;2024-01-27T03:30:32;100367.44;;;1.73;70.98
78117;BME280;69042;59.120;37.904;2024-01-27T03:32:58;100363.16;;;1.72;70.28
78117;BME280;69042;59.120;37.904;2024-01-27T03:35:25;100365.72;;;1.70;70.53
78117;BME280;69042;59.120;37.904;2024-01-27T03:37:51;100371.75;;;1.69;70.48
78117;BME280;69042;59.120;37.904;2024-01-27T03:40:18;100368.28;;;1.69;70.99
78117;BME280;69042;59.120;37.904;2024-01-27T03:42:44;100371.75;;;1.69;71.57
78117;BME280;69042;59.120;37.904;2024-01-27T03:45:11;100374.34;;;1.69;71.40
78117;BME280;69042;59.120;37.904;2024-01-27T03:47:37;100374.34;;;1.69;70.98
78117;BME280;69042;59.120;37.904;2024-01-27T03:50:04;100374.31;;;1.67;71.21
78117;BME280;69042;59.120;37.904;2024-01-27T03:52:31;100381.19;;;1.64;71.08
78117;BME280;69042;59.120;37.904;2024-01-27T03:54:57;100384.63;;;1.63;71.51
78117;BME280;69042;59.120;37.904;2024-01-27T03:57:23;100385.47;;;1.63;71.21
78117;BME280;69042;59.120;37.904;2024-01-27T03:59:50;100383.78;;;1.62;71.30
78117;BME280;69042;59.120;37.904;2024-01-27T04:02:16;100392.38;;;1.63;71.10
78117;BME280;69042;59.120;37.904;2024-01-27T04:04:43;100388.06;;;1.62;71.35
78117;BME280;69042;59.120;37.904;2024-01-27T04:07:09;100390.63;;;1.63;71.16
78117;BME280;69042;59.120;37.904;2024-01-27T04:09:38;100388.91;;;1.65;71.15
78117;BME280;69042;59.120;37.904;2024-01-27T04:12:05;100395.78;;;1.66;71.20
78117;BME280;69042;59.120;37.904;2024-01-27T04:14:32;100390.63;;;1.66;71.32
78117;BME280;69042;59.120;37.904;2024-01-27T04:16:58;100396.66;;;1.67;70.45
78117;BME280;69042;59.120;37.904;2024-01-27T04:19:24;100388.91;;;1.65;70.99
78117;BME280;69042;59.120;37.904;2024-01-27T04:21:51;100396.63;;;1.64;70.72
78117;BME280;69042;59.120;37.904;2024-01-27T04:24:17;100397.50;;;1.61;70.31
78117;BME280;69042;59.120;37.904;2024-01-27T04:26:44;100398.38;;;1.60;71.14
78117;BME280;69042;59.120;37.904;2024-01-27T04:29:10;100403.50;;;1.62;71.32
78117;BME280;69042;59.120;37.904;2024-01-27T04:31:41;100406.09;;;1.63;70.65
78117;BME280;69042;59.120;37.904;2024-01-27T04:34:08;100404.38;;;1.64;71.33
78117;BME280;69042;59.120;37.904;2024-01-27T04:36:34;100410.38;;;1.66;71.33
78117;BME280;69042;59.120;37.904;2024-01-27T04:39:01;100409.53;;;1.67;70.67
78117;BME280;69042;59.120;37.904;2024-01-27T04:41:27;100418.09;;;1.67;71.36
78117;BME280;69042;59.120;37.904;2024-01-27T04:43:53;100417.25;;;1.65;71.15
78117;BME280;69042;59.120;37.904;2024-01-27T04:46:22;100418.13;;;1.64;71.24
78117;BME280;69042;59.120;37.904;2024-01-27T04:48:49;100415.56;;;1.64;71.38
78117;BME280;69042;59.120;37.904;2024-01-27T04:51:15;100422.41;;;1.64;71.31
78117;BME280;69042;59.120;37.904;2024-01-27T04:53:41;100424.13;;;1.65;71.46
78117;BME280;69042;59.120;37.904;2024-01-27T04:56:08;100423.25;;;1.66;71.00
78117;BME280;69042;59.120;37.904;2024-01-27T04:58:35;100427.53;;;1.69;70.85
78117;BME280;69042;59.120;37.904;2024-01-27T05:01:02;100426.69;;;1.68;71.44
78117;BME280;69042;59.120;37.904;2024-01-27T05:03:29;100433.56;;;1.69;70.82
78117;BME280;69042;59.120;37.904;2024-01-27T05:05:55;100435.28;;;1.69;71.24
78117;BME280;69042;59.120;37.904;2024-01-27T05:08:21;100430.13;;;1.69;71.11
78117;BME280;69042;59.120;37.904;2024-01-27T05:10:48;100426.69;;;1.71;71.17
78117;BME280;69042;59.120;37.904;2024-01-27T05:13:14;100439.56;;;1.73;71.37
78117;BME280;69042;59.120;37.904;2024-01-27T05:15:41;100441.28;;;1.72;71.35
78117;BME280;69042;59.120;37.904;2024-01-27T05:18:07;100440.44;;;1.75;71.29
78117;BME280;69042;59.120;37.904;2024-01-27T05:20:34;100444.72;;;1.77;72.02
78117;BME280;69042;59.120;37.904;2024-01-27T05:23:00;100446.44;;;1.78;71.57
78117;BME280;69042;59.120;37.904;2024-01-27T05:25:27;100452.47;;;1.80;71.26
78117;BME280;69042;59.120;37.904;2024-01-27T05:27:53;100455.88;;;1.81;70.62
78117;BME280;69042;59.120;37.904;2024-01-27T05:30:20;100460.19;;;1.79;71.64
78117;BME280;69042;59.120;37.904;2024-01-27T05:32:46;100461.03;;;1.76;70.81
78117;BME280;69042;59.120;37.904;2024-01-27T05:35:13;100467.91;;;1.73;71.33
78117;BME280;69042;59.120;37.904;2024-01-27T05:37:39;100469.63;;;1.72;71.40
78117;BME280;69042;59.120;37.904;2024-01-27T05:40:07;100474.78;;;1.72;71.23
78117;BME280;69042;59.120;37.904;2024-01-27T05:42:34;100483.38;;;1.74;71.71
78117;BME280;69042;59.120;37.904;2024-01-27T05:45:00;100474.78;;;1.72;71.00
78117;BME280;69042;59.120;37.904;2024-01-27T05:47:28;100474.78;;;1.72;71.01
78117;BME280;69042;59.120;37.904;2024-01-27T05:49:54;100473.91;;;1.70;71.14
78117;BME280;69042;59.120;37.904;2024-01-27T05:52:21;100477.38;;;1.69;71.35
78117;BME280;69042;59.120;37.904;2024-01-27T05:54:47;100480.78;;;1.65;71.60
78117;BME280;69042;59.120;37.904;2024-01-27T05:57:14;100479.06;;;1.64;71.24
78117;BME280;69042;59.120;37.904;2024-01-27T05:59:40;100473.03;;;1.62;71.79
78117;BME280;69042;59.120;37.904;2024-01-27T06:02:07;100474.78;;;1.63;71.77
78117;BME280;69042;59.120;37.904;2024-01-27T06:04:33;100479.94;;;1.63;71.04
78117;BME280;69042;59.120;37.904;2024-01-27T06:07:00;100484.22;;;1.64;72.14
78117;BME280;69042;59.120;37.904;2024-01-27T06:09:27;100474.78;;;1.66;72.05
78117;BME280;69042;59.120;37.904;2024-01-27T06:11:53;100476.50;;;1.70;72.30
78117;BME280;69042;59.120;37.904;2024-01-27T06:14:20;100478.19;;;1.71;71.78
78117;BME280;69042;59.120;37.904;2024-01-27T06:16:46;100487.66;;;1.72;72.36
78117;BME280;69042;59.120;37.904;2024-01-27T06:19:12;100488.50;;;1.73;72.02
78117;BME280;69042;59.120;37.904;2024-01-27T06:21:39;100489.34;;;1.73;71.44
78117;BME280;69042;59.120;37.904;2024-01-27T06:24:08;100491.97;;;1.72;71.48
78117;BME280;69042;59.120;37.904;2024-01-27T06:26:35;100498.81;;;1.73;71.79
78117;BME280;69042;59.120;37.904;2024-01-27T06:29:01;100492.81;;;1.74;72.20
78117;BME280;69042;59.120;37.904;2024-01-27T06:31:28;100495.41;;;1.74;71.52
78117;BME280;69042;59.120;37.904;2024-01-27T06:33:55;100491.09;;;1.74;71.61
78117;BME280;69042;59.120;37.904;2024-01-27T06:36:21;100503.13;;;1.77;71.39
78117;BME280;69042;59.120;37.904;2024-01-27T06:38:50;100509.13;;;1.79;71.90
78117;BME280;69042;59.120;37.904;2024-01-27T06:41:17;100501.41;;;1.80;71.66
78117;BME280;69042;59.120;37.904;2024-01-27T06:43:44;100507.41;;;1.84;72.40
78117;BME280;69042;59.120;37.904;2024-01-27T06:46:10;100512.56;;;1.87;72.55
78117;BME280;69042;59.120;37.904;2024-01-27T06:48:37;100503.09;;;1.91;72.24
78117;BME280;69042;59.120;37.904;2024-01-27T06:51:04;100501.38;;;1.93;71.57
78117;BME280;69042;59.120;37.904;2024-01-27T06:53:31;100508.28;;;1.94;72.10
78117;BME280;69042;59.120;37.904;2024-01-27T06:55:57;100504.84;;;1.96;72.02
78117;BME280;69042;59.120;37.904;2024-01-27T06:58:24;100513.41;;;2.00;71.68
78117;BME280;69042;59.120;37.904;2024-01-27T07:00:50;100506.53;;;2.00;71.51
78117;BME280;69042;59.120;37.904;2024-01-27T07:03:17;100514.25;;;2.00;71.85
78117;BME280;69042;59.120;37.904;2024-01-27T07:05:43;100518.59;;;2.03;71.76
78117;BME280;69042;59.120;37.904;2024-01-27T07:08:10;100516.00;;;2.06;71.72
78117;BME280;69042;59.120;37.904;2024-01-27T07:10:36;100522.84;;;2.07;71.28
78117;BME280;69042;59.120;37.904;2024-01-27T07:13:03;100527.16;;;2.08;71.76
78117;BME280;69042;59.120;37.904;2024-01-27T07:15:29;100528.88;;;2.09;70.90
78117;BME280;69042;59.120;37.904;2024-01-27T07:17:56;100532.31;;;2.08;71.73
78117;BME280;69042;59.120;37.904;2024-01-27T07:20:23;100528.00;;;2.07;71.46
78117;BME280;69042;59.120;37.904;2024-01-27T07:22:51;100534.03;;;2.09;72.01
78117;BME280;69042;59.120;37.904;2024-01-27T07:25:17;100538.34;;;2.10;71.38
78117;BME280;69042;59.120;37.904;2024-01-27T07:27:44;100546.03;;;2.13;71.75
78117;BME280;69042;59.120;37.904;2024-01-27T07:30:11;100546.91;;;2.18;72.11
78117;BME280;69042;59.120;37.904;2024-01-27T07:32:37;100548.63;;;2.21;71.53
78117;BME280;69042;59.120;37.904;2024-01-27T07:35:04;100560.66;;;2.26;72.25
78117;BME280;69042;59.120;37.904;2024-01-27T07:37:32;100563.22;;;2.33;71.74
78117;BME280;69042;59.120;37.904;2024-01-27T07:39:58;100562.38;;;2.37;71.82
78117;BME280;69042;59.120;37.904;2024-01-27T07:42:25;100573.53;;;2.40;71.53
78117;BME280;69042;59.120;37.904;2024-01-27T07:44:51;100572.66;;;2.43;72.08
78117;BME280;69042;59.120;37.904;2024-01-27T07:47:18;100580.38;;;2.47;72.06
78117;BME280;69042;59.120;37.904;2024-01-27T07:49:44;100579.53;;;2.52;71.26
78117;BME280;69042;59.120;37.904;2024-01-27T07:52:11;100580.38;;;2.57;71.21
78117;BME280;69042;59.120;37.904;2024-01-27T07:54:38;100590.72;;;2.61;70.98
78117;BME280;69042;59.120;37.904;2024-01-27T07:57:06;100588.09;;;2.64;71.14
78117;BME280;69042;59.120;37.904;2024-01-27T07:59:33;100589.81;;;2.67;71.13
78117;BME280;69042;59.120;37.904;2024-01-27T08:01:59;100599.25;;;2.74;71.43
78117;BME280;69042;59.120;37.904;2024-01-27T08:04:26;100602.72;;;2.78;71.19
78117;BME280;69042;59.120;37.904;2024-01-27T08:06:53;100604.41;;;2.79;70.82
78117;BME280;69042;59.120;37.904;2024-01-27T08:09:20;100607.84;;;2.81;71.23
78117;BME280;69042;59.120;37.904;2024-01-27T08:11:46;100612.13;;;2.83;71.01
78117;BME280;69042;59.120;37.904;2024-01-27T08:14:17;100614.72;;;2.86;71.10
78117;BME280;69042;59.120;37.904;2024-01-27T08:16:44;100615.59;;;2.87;70.63
78117;BME280;69042;59.120;37.904;2024-01-27T08:19:10;100624.19;;;2.90;70.73
78117;BME280;69042;59.120;37.904;2024-01-27T08:21:39;100621.59;;;2.95;70.95
78117;BME280;69042;59.120;37.904;2024-01-27T08:24:06;100625.88;;;3.01;70.98
78117;BME280;69042;59.120;37.904;2024-01-27T08:26:32;100633.59;;;3.07;70.69
78117;BME280;69042;59.120;37.904;2024-01-27T08:28:59;100635.31;;;3.09;70.45
78117;BME280;69042;59.120;37.904;2024-01-27T08:31:25;100637.91;;;3.09;69.89
78117;BME280;69042;59.120;37.904;2024-01-27T08:33:52;100642.19;;;3.10;69.91
78117;BME280;69042;59.120;37.904;2024-01-27T08:36:19;100644.75;;;3.10;69.82
78117;BME280;69042;59.120;37.904;2024-01-27T08:38:45;100651.66;;;3.11;70.38
78117;BME280;69042;59.120;37.904;2024-01-27T08:41:12;100658.53;;;3.12;70.15
78117;BME280;69042;59.120;37.904;2024-01-27T08:43:39;100657.66;;;3.18;70.18
78117;BME280;69042;59.120;37.904;2024-01-27T08:46:05;100661.97;;;3.22;70.30
78117;BME280;69042;59.120;37.904;2024-01-27T08:48:33;100661.09;;;3.25;69.55
78117;BME280;69042;59.120;37.904;2024-01-27T08:51:00;100662.81;;;3.23;69.10
78117;BME280;69042;59.120;37.904;2024-01-27T08:53:27;100664.53;;;3.19;69.13
78117;BME280;69042;59.120;37.904;2024-01-27T08:55:53;100669.72;;;3.16;68.88
78117;BME280;69042;59.120;37.904;2024-01-27T08:58:21;100673.19;;;3.13;69.16
78117;BME280;69042;59.120;37.904;2024-01-27T09:00:48;100668.91;;;3.06;69.08
78117;BME280;69042;59.120;37.904;2024-01-27T09:03:14;100662.00;;;3.02;69.12
78117;BME280;69042;59.120;37.904;2024-01-27T09:05:48;100656.00;;;3.00;68.64
78117;BME280;69042;59.120;37.904;2024-01-27T09:08:16;100660.28;;;3.01;69.29
78117;BME280;69042;59.120;37.904;2024-01-27T09:10:43;100664.59;;;3.02;69.55
78117;BME280;69042;59.120;37.904;2024-01-27T09:13:09;100668.00;;;3.06;69.63
78117;BME280;69042;59.120;37.904;2024-01-27T09:15:35;100668.88;;;3.09;69.67
78117;BME280;69042;59.120;37.904;2024-01-27T09:18:02;100662.81;;;3.15;69.69
78117;BME280;69042;59.120;37.904;2024-01-27T09:20:30;100661.09;;;3.20;69.41
78117;BME280;69042;59.120;37.904;2024-01-27T09:22:57;100669.69;;;3.25;69.81
78117;BME280;69042;59.120;37.904;2024-01-27T09:25:24;100668.78;;;3.31;69.22
78117;BME280;69042;59.120;37.904;2024-01-27T09:27:53;100671.38;;;3.37;69.67
78117;BME280;69042;59.120;37.904;2024-01-27T09:30:20;100663.59;;;3.45;69.39
78117;BME280;69042;59.120;37.904;2024-01-27T09:32:47;100661.84;;;3.51;69.38
78117;BME280;69042;59.120;37.904;2024-01-27T09:35:16;100667.81;;;3.60;68.75
78117;BME280;69042;59.120;37.904;2024-01-27T09:37:43;100663.50;;;3.66;68.91
78117;BME280;69042;59.120;37.904;2024-01-27T09:40:11;100660.03;;;3.72;68.88
78117;BME280;69042;59.120;37.904;2024-01-27T09:42:38;100662.56;;;3.78;68.44
78117;BME280;69042;59.120;37.904;2024-01-27T09:45:09;100655.66;;;3.83;68.36
78117;BME280;69042;59.120;37.904;2024-01-27T09:47:36;100655.63;;;3.86;68.48
78117;BME280;69042;59.120;37.904;2024-01-27T09:50:05;100652.16;;;3.89;68.30
78117;BME280;69042;59.120;37.904;2024-01-27T09:52:33;100657.34;;;3.92;68.65
78117;BME280;69042;59.120;37.904;2024-01-27T09:55:00;100653.03;;;3.92;68.28
78117;BME280;69042;59.120;37.904;2024-01-27T09:57:27;100650.41;;;3.94;68.21
78117;BME280;69042;59.120;37.904;2024-01-27T09:59:56;100647.81;;;3.95;68.17
78117;BME280;69042;59.120;37.904;2024-01-27T10:02:24;100653.84;;;3.97;68.06
78117;BME280;69042;59.120;37.904;2024-01-27T10:04:53;100656.41;;;4.01;68.07
78117;BME280;69042;59.120;37.904;2024-01-27T10:07:21;100656.38;;;4.07;67.99
78117;BME280;69042;59.120;37.904;2024-01-27T10:09:49;100666.72;;;4.10;68.27
78117;BME280;69042;59.120;37.904;2024-01-27T10:12:16;100657.22;;;4.09;67.88
78117;BME280;69042;59.120;37.904;2024-01-27T10:14:45;100657.22;;;4.09;68.46
78117;BME280;69042;59.120;37.904;2024-01-27T10:17:21;100664.97;;;4.10;68.03
78117;BME280;69042;59.120;37.904;2024-01-27T10:20:05;100665.81;;;4.11;68.12
78117;BME280;69042;59.120;37.904;2024-01-27T10:22:41;100669.25;;;4.13;67.86
78117;BME280;69042;59.120;37.904;2024-01-27T10:25:08;100669.25;;;4.14;68.32
78117;BME280;69042;59.120;37.904;2024-01-27T10:27:38;100673.56;;;4.14;68.13
78117;BME280;69042;59.120;37.904;2024-01-27T10:30:05;100667.50;;;4.18;68.17
78117;BME280;69042;59.120;37.904;2024-01-27T10:32:33;100665.75;;;4.22;67.98
78117;BME280;69042;59.120;37.904;2024-01-27T10:35:07;100669.16;;;4.27;67.76
78117;BME280;69042;59.120;37.904;2024-01-27T10:37:37;100675.16;;;4.32;67.63
78117;BME280;69042;59.120;37.904;2024-01-27T10:40:05;100677.69;;;4.38;67.51
78117;BME280;69042;59.120;37.904;2024-01-27T10:42:37;100672.53;;;4.36;67.41
78117;BME280;69042;59.120;37.904;2024-01-27T10:45:05;100670.78;;;4.38;67.58
78117;BME280;69042;59.120;37.904;2024-01-27T10:47:32;100667.34;;;4.40;67.34
78117;BME280;69042;59.120;37.904;2024-01-27T10:50:00;100679.44;;;4.39;67.50
78117;BME280;69042;59.120;37.904;2024-01-27T10:52:38;100682.00;;;4.41;66.83
78117;BME280;69042;59.120;37.904;2024-01-27T10:55:05;100681.13;;;4.42;67.67
78117;BME280;69042;59.120;37.904;2024-01-27T10:57:37;100677.66;;;4.41;67.56
78117;BME280;69042;59.120;37.904;2024-01-27T11:00:06;100683.69;;;4.43;67.51
78117;BME280;69042;59.120;37.904;2024-01-27T11:02:34;100686.31;;;4.40;67.36
78117;BME280;69042;59.120;37.904;2024-01-27T11:05:04;100687.19;;;4.34;67.08
78117;BME280;69042;59.120;37.904;2024-01-27T11:07:34;100692.44;;;4.28;67.39
78117;BME280;69042;59.120;37.904;2024-01-27T11:10:01;100697.63;;;4.25;66.87
78117;BME280;69042;59.120;37.904;2024-01-27T11:12:28;100695.94;;;4.21;66.65
78117;BME280;69042;59.120;37.904;2024-01-27T11:14:55;100703.72;;;4.15;67.03
78117;BME280;69042;59.120;37.904;2024-01-27T11:17:24;100702.91;;;4.08;67.12
78117;BME280;69042;59.120;37.904;2024-01-27T11:19:51;100711.53;;;4.04;67.06
78117;BME280;69042;59.120;37.904;2024-01-27T11:22:28;100721.91;;;4.00;67.27
78117;BME280;69042;59.120;37.904;2024-01-27T11:27:36;100723.69;;;3.88;66.91
78117;BME280;69042;59.120;37.904;2024-01-27T11:30:03;100725.47;;;3.83;66.86
78117;BME280;69042;59.120;37.904;2024-01-27T11:32:31;100724.59;;;3.78;67.36
78117;BME280;69042;59.120;37.904;2024-01-27T11:35:00;100731.53;;;3.76;67.69
78117;BME280;69042;59.120;37.904;2024-01-27T11:37:30;100731.50;;;3.73;67.18
78117;BME280;69042;59.120;37.904;2024-01-27T11:40:04;100735.84;;;3.69;66.83
78117;BME280;69042;59.120;37.904;2024-01-27T11:42:32;100734.13;;;3.67;66.75
78117;BME280;69042;59.120;37.904;2024-01-27T11:44:58;100733.28;;;3.63;66.64
78117;BME280;69042;59.120;37.904;2024-01-27T11:47:25;100737.59;;;3.55;66.85
78117;BME280;69042;59.120;37.904;2024-01-27T11:49:54;100743.66;;;3.46;66.89
78117;BME280;69042;59.120;37.904;2024-01-27T11:52:21;100743.69;;;3.42;67.31
78117;BME280;69042;59.120;37.904;2024-01-27T11:54:58;100741.13;;;3.39;67.35
78117;BME280;69042;59.120;37.904;2024-01-27T11:57:25;100745.41;;;3.37;67.58
78117;BME280;69042;59.120;37.904;2024-01-27T11:59:52;100748.03;;;3.33;67.49
78117;BME280;69042;59.120;37.904;2024-01-27T12:02:19;100749.75;;;3.30;67.18
78117;BME280;69042;59.120;37.904;2024-01-27T12:04:47;100755.78;;;3.27;67.39
78117;BME280;69042;59.120;37.904;2024-01-27T12:07:15;100757.50;;;3.24;67.77
78117;BME280;69042;59.120;37.904;2024-01-27T12:09:45;100767.81;;;3.24;67.96
78117;BME280;69042;59.120;37.904;2024-01-27T12:12:13;100765.25;;;3.19;67.74
78117;BME280;69042;59.120;37.904;2024-01-27T12:14:47;100760.09;;;3.16;67.81
78117;BME280;69042;59.120;37.904;2024-01-27T12:17:14;100768.69;;;3.10;67.50
78117;BME280;69042;59.120;37.904;2024-01-27T12:19:52;100778.16;;;3.08;67.60
78117;BME280;69042;59.120;37.904;2024-01-27T12:22:26;100773.00;;;3.05;67.47
78117;BME280;69042;59.120;37.904;2024-01-27T12:24:54;100770.44;;;3.01;67.21
78117;BME280;69042;59.120;37.904;2024-01-27T12:27:24;100767.00;;;2.94;67.44
78117;BME280;69042;59.120;37.904;2024-01-27T12:29:50;100784.22;;;2.90;67.09
78117;BME280;69042;59.120;37.904;2024-01-27T12:32:17;100780.75;;;2.85;66.97
78117;BME280;69042;59.120;37.904;2024-01-27T12:34:44;100783.34;;;2.81;67.90
78117;BME280;69042;59.120;37.904;2024-01-27T12:37:12;100790.22;;;2.77;67.58
78117;BME280;69042;59.120;37.904;2024-01-27T12:39:45;100789.34;;;2.72;68.15
78117;BME280;69042;59.120;37.904;2024-01-27T12:42:12;100795.38;;;2.69;68.50
78117;BME280;69042;59.120;37.904;2024-01-27T12:44:39;100792.78;;;2.63;68.38
78117;BME280;69042;59.120;37.904;2024-01-27T12:47:06;100803.09;;;2.60;68.43
78117;BME280;69042;59.120;37.904;2024-01-27T12:49:32;100809.97;;;2.55;68.57
78117;BME280;69042;59.120;37.904;2024-01-27T12:52:00;100808.25;;;2.54;68.60